createdAt,value
2018-07-28T00:03:29.881Z,19.92
2018-07-28T00:08:34.608Z,19.70
2018-07-28T00:13:39.536Z,19.76
2018-07-28T00:18:44.287Z,19.59
2018-07-28T00:23:49.085Z,19.45
2018-07-28T00:28:53.707Z,19.32
2018-07-28T00:33:58.653Z,19.36
2018-07-28T00:39:03.458Z,19.25
2018-07-28T00:44:08.133Z,19.11
2018-07-28T00:49:13.005Z,19.17
2018-07-28T00:54:17.754Z,18.97
2018-07-28T00:59:22.379Z,18.95
2018-07-28T01:04:27.123Z,18.87
2018-07-28T01:09:31.759Z,18.77
2018-07-28T01:14:36.402Z,18.82
2018-07-28T01:19:41.113Z,18.70
2018-07-28T01:24:45.828Z,18.64
2018-07-28T01:29:50.550Z,18.63
2018-07-28T01:34:55.253Z,18.54
2018-07-28T01:39:59.895Z,18.70
2018-07-28T01:45:05.506Z,18.44
2018-07-28T01:50:10.904Z,18.49
2018-07-28T01:55:15.547Z,18.39
2018-07-28T02:00:20.272Z,18.19
2018-07-28T02:05:25.032Z,18.26
2018-07-28T02:10:29.775Z,18.15
2018-07-28T02:15:34.656Z,18.04
2018-07-28T02:20:39.564Z,18.07
2018-07-28T02:25:44.262Z,17.95
2018-07-28T02:30:49.227Z,17.83
2018-07-28T02:35:53.911Z,17.82
2018-07-28T02:40:58.624Z,17.72
2018-07-28T02:46:03.440Z,17.81
2018-07-28T02:51:08.287Z,17.57
2018-07-28T02:56:14.169Z,17.56
2018-07-28T03:01:18.837Z,17.57
2018-07-28T03:06:23.644Z,17.47
2018-07-28T03:11:28.525Z,17.52
2018-07-28T03:16:33.385Z,17.69
2018-07-28T03:21:38.038Z,17.53
2018-07-28T03:26:42.689Z,17.36
2018-07-28T03:31:47.052Z,17.21
2018-07-28T03:36:51.855Z,17.12
2018-07-28T03:41:56.714Z,17.11
2018-07-28T03:47:01.408Z,17.08
2018-07-28T03:52:06.122Z,17.07
2018-07-28T03:57:10.803Z,17.20
2018-07-28T04:02:15.607Z,17.23
2018-07-28T04:07:20.275Z,17.41
2018-07-28T04:12:25.049Z,17.58
2018-07-28T04:17:29.934Z,17.96
2018-07-28T04:22:34.571Z,18.33
2018-07-28T04:27:39.244Z,19.12
2018-07-28T04:32:44.023Z,19.96
2018-07-28T04:37:48.699Z,20.39
2018-07-28T04:42:53.554Z,20.77
2018-07-28T04:47:57.958Z,20.61
2018-07-28T04:53:02.665Z,21.91
2018-07-28T04:58:07.532Z,22.64
2018-07-28T05:03:12.203Z,23.00
2018-07-28T05:08:16.825Z,23.57
2018-07-28T05:13:21.593Z,22.92
2018-07-28T05:18:26.235Z,24.76
2018-07-28T05:23:30.992Z,23.92
2018-07-28T05:28:35.792Z,25.41
2018-07-28T05:33:40.634Z,25.26
2018-07-28T05:38:45.288Z,23.73
2018-07-28T05:43:50.080Z,25.14
2018-07-28T05:48:55.278Z,25.44
2018-07-28T05:53:59.961Z,24.73
2018-07-28T05:59:04.710Z,24.30
2018-07-28T06:04:09.522Z,25.47
2018-07-28T06:09:14.315Z,24.61
2018-07-28T06:14:19.030Z,25.48
2018-07-28T06:19:23.844Z,25.03
2018-07-28T06:24:28.542Z,25.41
2018-07-28T06:29:33.245Z,25.72
2018-07-28T06:34:38.104Z,25.76
2018-07-28T06:39:42.784Z,26.05
2018-07-28T06:44:47.492Z,26.17
2018-07-28T06:49:52.714Z,26.95
2018-07-28T06:54:57.363Z,26.38
2018-07-28T07:00:02.292Z,26.82
2018-07-28T07:05:08.847Z,26.61
2018-07-28T07:10:13.610Z,26.77
2018-07-28T07:15:18.324Z,26.72
2018-07-28T07:20:23.083Z,27.22
2018-07-28T07:25:27.948Z,27.27
2018-07-28T07:30:32.767Z,28.17
2018-07-28T07:35:37.598Z,27.36
2018-07-28T07:40:42.460Z,27.52
2018-07-28T07:45:47.399Z,28.65
2018-07-28T07:50:52.132Z,29.34
2018-07-28T07:55:56.850Z,29.09
2018-07-28T08:01:01.577Z,29.10
2018-07-28T08:06:06.006Z,28.21
2018-07-28T08:11:10.964Z,28.64
2018-07-28T08:16:15.710Z,28.28
2018-07-28T08:21:20.121Z,28.64
2018-07-28T08:26:24.934Z,28.70
2018-07-28T08:31:29.653Z,30.09
2018-07-28T08:36:34.397Z,30.28
2018-07-28T08:41:39.206Z,30.47
2018-07-28T08:46:43.954Z,31.00
2018-07-28T08:51:48.737Z,30.91
2018-07-28T08:56:53.509Z,31.17
2018-07-28T09:01:58.326Z,31.60
2018-07-28T09:07:03.022Z,31.06
2018-07-28T09:12:07.939Z,31.21
2018-07-28T09:17:12.622Z,32.21
2018-07-28T09:22:17.362Z,31.61
2018-07-28T09:27:22.276Z,32.05
2018-07-28T09:32:26.970Z,31.70
2018-07-28T09:37:31.884Z,31.64
2018-07-28T09:42:36.649Z,31.75
2018-07-28T09:47:41.333Z,32.43
2018-07-28T09:52:46.048Z,32.88
2018-07-28T09:57:50.817Z,33.00
2018-07-28T10:02:55.701Z,33.05
2018-07-28T10:08:00.686Z,33.36
2018-07-28T10:13:05.369Z,32.66
2018-07-28T10:18:10.043Z,33.03
2018-07-28T10:23:15.557Z,33.03
2018-07-28T10:28:20.286Z,32.82
2018-07-28T10:33:24.923Z,32.09
2018-07-28T10:38:29.699Z,32.15
2018-07-28T10:43:34.609Z,34.26
2018-07-28T10:48:39.386Z,33.53
2018-07-28T10:53:44.233Z,32.70
2018-07-28T10:58:49.172Z,33.03
2018-07-28T11:03:54.182Z,33.00
2018-07-28T11:08:58.876Z,33.90
2018-07-28T11:14:03.805Z,32.36
2018-07-28T11:19:08.694Z,32.18
2018-07-28T11:24:13.387Z,32.78
2018-07-28T11:29:18.104Z,33.47
2018-07-28T11:34:39.796Z,32.85
2018-07-28T11:40:01.515Z,32.09
2018-07-28T11:45:16.874Z,32.13
2018-07-28T11:50:21.553Z,32.12
2018-07-28T11:55:26.386Z,31.85
2018-07-28T12:00:31.243Z,32.62
2018-07-28T12:05:36.155Z,32.75
2018-07-28T12:10:40.833Z,32.79
2018-07-28T12:15:45.568Z,33.03
2018-07-28T12:20:50.283Z,32.66
2018-07-28T12:25:55.004Z,31.68
2018-07-28T12:30:59.812Z,32.68
2018-07-28T12:36:05.114Z,33.05
2018-07-28T12:41:10.041Z,32.26
2018-07-28T12:46:14.668Z,33.31
2018-07-28T12:51:19.373Z,34.33
2018-07-28T12:56:24.205Z,34.12
2018-07-28T13:01:29.714Z,33.53
2018-07-28T13:06:34.519Z,33.71
2018-07-28T13:11:39.472Z,33.01
2018-07-28T13:16:44.318Z,33.28
2018-07-28T13:21:49.511Z,33.67
2018-07-28T13:26:54.393Z,33.22
2018-07-28T13:31:58.824Z,33.21
2018-07-28T13:37:04.278Z,33.66
2018-07-28T13:42:09.167Z,33.35
2018-07-28T13:47:14.153Z,33.50
2018-07-28T13:52:20.185Z,33.73
2018-07-28T13:57:25.808Z,33.89
2018-07-28T14:02:30.711Z,33.72
2018-07-28T14:07:35.624Z,33.56
2018-07-28T14:12:41.020Z,33.68
2018-07-28T14:17:45.937Z,34.20
2018-07-28T14:22:51.019Z,34.75
2018-07-28T14:27:55.903Z,34.23
2018-07-28T14:33:01.788Z,33.44
2018-07-28T14:38:07.449Z,33.91
2018-07-28T14:43:12.305Z,32.38
2018-07-28T14:48:17.377Z,32.12
2018-07-28T14:53:22.833Z,32.99
2018-07-28T14:58:27.284Z,34.39
2018-07-28T15:03:32.080Z,34.67
2018-07-28T15:08:37.004Z,32.79
2018-07-28T15:13:42.879Z,32.26
2018-07-28T15:18:47.810Z,31.62
2018-07-28T15:23:52.591Z,31.43
2018-07-28T15:28:57.479Z,31.32
2018-07-28T15:34:02.282Z,31.21
2018-07-28T15:39:10.069Z,30.23
2018-07-28T15:44:14.846Z,27.12
2018-07-28T15:49:19.783Z,24.93
2018-07-28T15:54:24.483Z,24.41
2018-07-28T15:59:29.947Z,24.18
2018-07-28T16:04:35.164Z,23.83
2018-07-28T16:09:40.039Z,23.74
2018-07-28T16:14:44.912Z,23.56
2018-07-28T16:19:49.774Z,23.59
2018-07-28T16:24:54.508Z,23.72
2018-07-28T16:29:59.399Z,23.52
2018-07-28T16:35:04.337Z,23.66
2018-07-28T16:40:09.275Z,23.66
2018-07-28T16:45:13.965Z,23.36
2018-07-28T16:50:18.806Z,23.39
2018-07-28T16:55:29.584Z,23.56
2018-07-28T17:00:34.283Z,23.07
2018-07-28T17:05:38.970Z,22.96
2018-07-28T17:10:43.915Z,23.09
2018-07-28T17:15:48.811Z,22.76
2018-07-28T17:20:53.729Z,22.57
2018-07-28T17:25:58.519Z,22.39
2018-07-28T17:31:03.310Z,22.46
2018-07-28T17:36:08.104Z,22.55
2018-07-28T17:41:13.009Z,22.46
2018-07-28T17:46:17.652Z,22.86
2018-07-28T17:51:22.404Z,22.70
2018-07-28T17:56:27.521Z,22.57
2018-07-28T18:01:32.319Z,22.63
2018-07-28T18:06:37.133Z,22.73
2018-07-28T18:11:41.867Z,22.82
2018-07-28T18:16:46.627Z,22.71
2018-07-28T18:21:51.343Z,22.53
2018-07-28T18:26:56.023Z,22.55
2018-07-28T18:32:00.810Z,22.37
2018-07-28T18:37:05.766Z,22.28
2018-07-28T18:42:10.677Z,22.13
2018-07-28T18:47:15.584Z,22.09
2018-07-28T18:52:20.365Z,22.02
2018-07-28T18:57:25.091Z,21.80
2018-07-28T19:02:30.575Z,21.59
2018-07-28T19:07:35.353Z,21.52
2018-07-28T19:12:45.275Z,21.35
2018-07-28T19:17:54.963Z,21.23
2018-07-28T19:23:04.777Z,21.15
2018-07-28T19:28:14.740Z,21.14
2018-07-28T19:33:20.065Z,20.99
2018-07-28T19:38:24.951Z,20.88
2018-07-28T19:43:29.761Z,20.78
2018-07-28T19:48:34.556Z,20.70
2018-07-28T19:53:39.481Z,20.68
2018-07-28T19:58:44.265Z,20.53
2018-07-28T20:03:49.129Z,20.43
2018-07-28T20:08:54.149Z,20.32
2018-07-28T20:13:59.085Z,20.30
2018-07-28T20:19:03.971Z,20.23
2018-07-28T20:24:08.827Z,20.13
2018-07-28T20:29:13.802Z,20.10
2018-07-28T20:34:18.630Z,20.04
2018-07-28T20:39:23.766Z,19.83
2018-07-28T20:44:28.553Z,20.00
2018-07-28T20:49:33.298Z,19.83
2018-07-28T20:54:38.260Z,19.68
2018-07-28T20:59:43.239Z,19.50
2018-07-28T21:04:48.138Z,19.42
2018-07-28T21:09:53.058Z,19.35
2018-07-28T21:14:57.999Z,19.10
2018-07-28T21:20:02.892Z,19.07
2018-07-28T21:25:07.878Z,19.10
2018-07-28T21:30:12.673Z,19.11
2018-07-28T21:35:17.579Z,19.18
2018-07-28T21:40:22.895Z,19.05
2018-07-28T21:45:27.768Z,18.86
2018-07-28T21:50:32.624Z,18.90
2018-07-28T21:55:37.499Z,18.92
2018-07-28T22:00:47.264Z,18.76
2018-07-28T22:05:51.977Z,18.88
2018-07-28T22:10:57.019Z,19.12
2018-07-28T22:16:01.751Z,19.28
2018-07-28T22:21:06.705Z,19.23
2018-07-28T22:26:11.431Z,19.29
2018-07-28T22:31:16.148Z,19.24
2018-07-28T22:36:20.922Z,19.18
2018-07-28T22:41:25.734Z,19.33
2018-07-28T22:46:31.871Z,19.24
2018-07-28T22:51:36.603Z,19.24
2018-07-28T22:56:41.391Z,19.21
2018-07-28T23:01:46.140Z,19.18
2018-07-28T23:06:51.211Z,19.22
2018-07-28T23:11:56.129Z,19.17
2018-07-28T23:17:00.608Z,19.22
2018-07-28T23:22:05.370Z,19.15
2018-07-28T23:27:10.090Z,19.11
2018-07-28T23:32:14.891Z,19.02
2018-07-28T23:37:19.668Z,18.98
2018-07-28T23:42:24.033Z,18.77
2018-07-28T23:47:28.924Z,18.71
2018-07-28T23:52:33.619Z,18.72
2018-07-28T23:57:38.549Z,18.64
